createdAt,value
2022-09-28T00:00:00.541Z,2.00
2022-09-28T00:01:00.799Z,2.10
2022-09-28T00:02:00.681Z,1.70
2022-09-28T00:03:00.581Z,1.90
2022-09-28T00:04:00.491Z,2.00
2022-09-28T00:05:00.501Z,2.10
2022-09-28T00:06:00.470Z,2.00
2022-09-28T00:07:00.675Z,2.20
2022-09-28T00:08:00.450Z,2.30
2022-09-28T00:10:01.422Z,2.00
2022-09-28T00:11:00.411Z,2.20
2022-09-28T00:12:00.414Z,2.10
2022-09-28T00:13:00.617Z,2.30
2022-09-28T00:14:00.682Z,2.10
2022-09-28T00:15:00.363Z,2.20
2022-09-28T00:16:00.403Z,2.20
2022-09-28T00:17:00.354Z,1.90
2022-09-28T00:18:00.344Z,2.20
2022-09-28T00:19:00.365Z,2.30
2022-09-28T00:21:11.330Z,2.10
2022-09-28T00:22:11.284Z,2.10
2022-09-28T00:23:11.281Z,2.40
2022-09-28T00:24:11.269Z,2.50
2022-09-28T00:25:11.499Z,2.40
2022-09-28T00:26:11.228Z,2.30
2022-09-28T00:27:11.233Z,2.40
2022-09-28T00:28:11.214Z,2.30
2022-09-28T00:29:11.207Z,2.30
2022-09-28T00:30:11.213Z,2.60
2022-09-28T00:31:11.524Z,2.50
2022-09-28T00:32:11.440Z,2.50
2022-09-28T00:33:11.175Z,2.50
2022-09-28T00:34:11.145Z,2.50
2022-09-28T00:35:11.136Z,2.70
2022-09-28T00:36:11.126Z,2.30
2022-09-28T00:37:11.114Z,2.70
2022-09-28T00:38:11.401Z,2.50
2022-09-28T00:39:11.095Z,2.60
2022-09-28T00:40:11.064Z,2.40
2022-09-28T00:41:11.071Z,2.30
2022-09-28T00:42:11.037Z,2.30
2022-09-28T00:43:11.045Z,2.30
2022-09-28T00:44:11.034Z,2.30
2022-09-28T00:45:11.007Z,2.30
2022-09-28T00:46:11.080Z,2.20
2022-09-28T00:47:10.993Z,2.20
2022-09-28T00:48:10.986Z,2.80
2022-09-28T00:49:10.976Z,2.20
2022-09-28T00:50:10.980Z,2.60
2022-09-28T00:51:10.934Z,2.10
2022-09-28T00:52:10.914Z,2.70
2022-09-28T00:53:10.936Z,2.30
2022-09-28T00:54:10.909Z,2.40
2022-09-28T00:55:11.179Z,2.20
2022-09-28T00:56:10.879Z,2.30
2022-09-28T00:57:10.866Z,2.50
2022-09-28T00:58:10.859Z,2.20
2022-09-28T00:59:11.507Z,2.40
2022-09-28T01:00:11.149Z,2.30
2022-09-28T01:01:11.096Z,2.50
2022-09-28T01:02:10.878Z,2.30
2022-09-28T01:03:10.813Z,2.30
2022-09-28T01:04:10.777Z,2.50
2022-09-28T01:05:10.788Z,2.50
2022-09-28T01:06:11.017Z,2.30
2022-09-28T01:07:10.763Z,2.20
2022-09-28T01:08:10.728Z,2.30
2022-09-28T01:09:10.719Z,2.20
2022-09-28T01:10:10.710Z,2.40
2022-09-28T01:11:10.699Z,2.50
2022-09-28T01:12:10.988Z,2.20
2022-09-28T01:13:10.669Z,2.40
2022-09-28T01:14:10.659Z,2.30
2022-09-28T01:15:10.662Z,2.20
2022-09-28T01:16:10.695Z,2.30
2022-09-28T01:17:10.953Z,2.40
2022-09-28T01:18:10.643Z,2.40
2022-09-28T01:19:10.614Z,2.30
2022-09-28T01:20:10.590Z,2.50
2022-09-28T01:21:10.581Z,2.50
2022-09-28T01:22:10.595Z,2.30
2022-09-28T01:23:10.573Z,2.60
2022-09-28T01:24:10.541Z,2.70
2022-09-28T01:25:10.547Z,2.60
2022-09-28T01:26:10.530Z,2.80
2022-09-28T01:27:10.821Z,2.60
2022-09-28T01:28:10.756Z,2.40
2022-09-28T01:29:10.521Z,2.50
2022-09-28T01:30:10.472Z,2.30
2022-09-28T01:31:10.530Z,2.40
2022-09-28T01:32:10.733Z,2.20
2022-09-28T01:33:10.453Z,2.20
2022-09-28T01:34:10.445Z,2.40
2022-09-28T01:35:10.422Z,2.40
2022-09-28T01:36:10.418Z,2.50
2022-09-28T01:37:10.410Z,2.60
2022-09-28T01:38:10.714Z,2.20
2022-09-28T01:39:10.398Z,2.30
2022-09-28T01:40:10.548Z,2.30
2022-09-28T01:41:10.358Z,2.40
2022-09-28T01:42:10.333Z,2.60
2022-09-28T01:43:10.323Z,2.80
2022-09-28T01:44:10.314Z,2.50
2022-09-28T01:45:10.316Z,2.60
2022-09-28T01:46:10.605Z,2.50
2022-09-28T01:47:10.277Z,2.70
2022-09-28T01:48:10.269Z,2.80
2022-09-28T01:49:10.291Z,3.00
2022-09-28T01:50:10.263Z,2.80
2022-09-28T01:51:10.249Z,2.70
2022-09-28T01:52:10.518Z,2.80
2022-09-28T01:53:10.226Z,2.70
2022-09-28T01:54:10.188Z,2.80
2022-09-28T01:55:10.189Z,2.90
2022-09-28T01:56:10.178Z,2.70
2022-09-28T01:57:10.491Z,3.00
2022-09-28T01:58:10.153Z,3.00
2022-09-28T01:59:10.201Z,3.00
2022-09-28T02:00:10.140Z,3.00
2022-09-28T02:01:10.261Z,3.10
2022-09-28T02:02:10.173Z,3.20
2022-09-28T02:03:10.110Z,3.30
2022-09-28T02:04:10.071Z,3.00
2022-09-28T02:05:10.078Z,3.20
2022-09-28T02:06:10.063Z,3.40
2022-09-28T02:07:10.330Z,3.20
2022-09-28T02:08:10.053Z,3.50
2022-09-28T02:09:10.075Z,4.00
2022-09-28T02:10:10.001Z,3.30
2022-09-28T02:11:10.000Z,3.30
2022-09-28T02:12:10.294Z,3.40
2022-09-28T02:13:09.986Z,3.60
2022-09-28T02:14:09.951Z,3.30
2022-09-28T02:15:09.942Z,3.50
2022-09-28T02:16:09.966Z,3.70
2022-09-28T02:17:09.936Z,3.60
2022-09-28T02:18:10.194Z,3.40
2022-09-28T02:19:09.966Z,3.50
2022-09-28T02:20:09.890Z,3.40
2022-09-28T02:21:09.888Z,3.60
2022-09-28T02:22:09.874Z,3.50
2022-09-28T02:23:09.871Z,3.40
2022-09-28T02:24:21.201Z,3.90
2022-09-28T02:25:10.837Z,3.90
2022-09-28T02:26:09.811Z,3.80
2022-09-28T02:27:09.807Z,3.90
2022-09-28T02:28:10.108Z,3.80
2022-09-28T02:29:10.067Z,4.00
2022-09-28T02:30:09.785Z,3.90
2022-09-28T02:31:09.842Z,4.00
2022-09-28T02:32:09.745Z,3.90
2022-09-28T02:33:10.036Z,4.20
2022-09-28T02:34:09.716Z,4.30
2022-09-28T02:35:09.726Z,4.20
2022-09-28T02:36:09.708Z,4.60
2022-09-28T02:37:09.696Z,4.40
2022-09-28T02:38:09.666Z,4.30
2022-09-28T02:39:09.677Z,4.60
2022-09-28T02:40:09.658Z,4.70
2022-09-28T02:41:09.651Z,4.50
2022-09-28T02:42:09.949Z,4.60
2022-09-28T02:43:09.607Z,4.60
2022-09-28T02:44:09.612Z,4.90
2022-09-28T02:45:09.610Z,4.70
2022-09-28T02:46:10.926Z,5.00
2022-09-28T02:47:09.581Z,4.80
2022-09-28T02:48:19.096Z,5.20
2022-09-28T02:49:21.356Z,5.00
2022-09-28T02:50:10.545Z,5.40
2022-09-28T02:51:09.540Z,5.60
2022-09-28T02:52:09.822Z,5.90
2022-09-28T02:53:09.499Z,5.70
2022-09-28T02:54:09.494Z,6.10
2022-09-28T02:55:09.470Z,5.70
2022-09-28T02:56:09.472Z,5.60
2022-09-28T02:57:09.451Z,5.60
2022-09-28T02:58:09.759Z,5.60
2022-09-28T02:59:09.445Z,5.70
2022-09-28T03:00:09.411Z,6.00
2022-09-28T03:01:09.435Z,5.70
2022-09-28T03:02:09.461Z,6.20
2022-09-28T03:03:09.393Z,6.20
2022-09-28T03:04:09.671Z,6.30
2022-09-28T03:05:09.561Z,6.10
2022-09-28T03:06:09.341Z,6.40
2022-09-28T03:07:09.375Z,6.40
2022-09-28T03:08:09.314Z,6.10
2022-09-28T03:09:09.555Z,6.00
2022-09-28T03:10:09.309Z,6.20
2022-09-28T03:11:09.298Z,6.70
2022-09-28T03:12:09.277Z,6.60
2022-09-28T03:13:09.277Z,6.40
2022-09-28T03:14:09.567Z,6.50
2022-09-28T03:15:09.257Z,6.40
2022-09-28T03:16:09.292Z,6.70
2022-09-28T03:17:09.227Z,6.70
2022-09-28T03:18:09.219Z,6.50
2022-09-28T03:19:09.196Z,6.50
2022-09-28T03:20:09.383Z,6.50
2022-09-28T03:21:09.180Z,6.20
2022-09-28T03:22:09.169Z,6.70
2022-09-28T03:23:25.484Z,6.60
2022-09-28T03:24:10.148Z,6.80
2022-09-28T03:25:09.124Z,7.00
2022-09-28T03:26:09.316Z,7.00
2022-09-28T03:27:09.120Z,7.30
2022-09-28T03:28:09.093Z,7.00
2022-09-28T03:29:09.083Z,7.20
2022-09-28T03:30:09.081Z,7.00
2022-09-28T03:31:09.094Z,7.60
2022-09-28T03:32:09.245Z,6.90
2022-09-28T03:33:09.271Z,7.20
2022-09-28T03:34:09.016Z,7.70
2022-09-28T03:35:09.006Z,6.60
2022-09-28T03:36:09.009Z,7.30
2022-09-28T03:37:08.979Z,7.60
2022-09-28T03:38:09.312Z,7.50
2022-09-28T03:39:08.982Z,7.50
2022-09-28T03:40:08.948Z,7.40
2022-09-28T03:41:08.939Z,7.40
2022-09-28T03:42:08.919Z,7.90
2022-09-28T03:43:08.908Z,7.70
2022-09-28T03:44:09.171Z,8.00
2022-09-28T03:45:08.903Z,7.60
2022-09-28T03:46:08.977Z,8.30
2022-09-28T03:47:08.883Z,8.10
2022-09-28T03:48:08.872Z,8.00
2022-09-28T03:49:08.855Z,8.10
2022-09-28T03:50:09.070Z,8.40
2022-09-28T03:51:08.834Z,8.10
2022-09-28T03:52:08.823Z,8.60
2022-09-28T03:53:08.791Z,8.80
2022-09-28T03:54:08.814Z,9.10
2022-09-28T03:55:08.785Z,8.80
2022-09-28T03:56:09.084Z,8.80
2022-09-28T03:57:08.751Z,9.10
2022-09-28T03:58:08.756Z,9.20
2022-09-28T03:59:08.731Z,9.00
2022-09-28T04:00:08.734Z,9.20
2022-09-28T04:01:12.918Z,9.40
2022-09-28T04:02:09.912Z,9.60
2022-09-28T04:03:08.683Z,9.10
2022-09-28T04:04:08.672Z,9.40
2022-09-28T04:05:08.667Z,9.10
2022-09-28T04:06:08.658Z,9.10
2022-09-28T04:07:08.632Z,9.30
2022-09-28T04:08:08.935Z,9.40
2022-09-28T04:09:08.884Z,9.40
2022-09-28T04:10:08.606Z,9.50
2022-09-28T04:11:08.894Z,9.30
2022-09-28T04:12:08.597Z,9.10
2022-09-28T04:13:08.890Z,9.30
2022-09-28T04:14:08.568Z,9.00
2022-09-28T04:15:08.557Z,9.80
2022-09-28T04:16:08.582Z,9.30
2022-09-28T04:17:08.529Z,9.70
2022-09-28T04:18:08.837Z,9.60
2022-09-28T04:19:08.509Z,9.30
2022-09-28T04:20:08.498Z,9.60
2022-09-28T04:21:08.471Z,8.90
2022-09-28T04:22:08.458Z,9.60
2022-09-28T04:23:08.461Z,9.30
2022-09-28T04:24:08.769Z,9.60
2022-09-28T04:25:08.438Z,9.90
2022-09-28T04:26:08.417Z,10.20
2022-09-28T04:27:08.397Z,10.30
2022-09-28T04:28:08.390Z,10.40
2022-09-28T04:29:08.379Z,9.40
2022-09-28T04:30:08.619Z,10.70
2022-09-28T04:31:08.370Z,10.00
2022-09-28T04:32:08.711Z,9.70
2022-09-28T04:33:08.628Z,9.80
2022-09-28T04:34:08.350Z,10.50
2022-09-28T04:35:08.329Z,10.50
2022-09-28T04:36:08.569Z,10.40
2022-09-28T04:37:08.282Z,10.50
2022-09-28T04:38:08.278Z,10.30
2022-09-28T04:39:08.277Z,11.10
2022-09-28T04:40:08.258Z,11.20
2022-09-28T04:41:34.710Z,11.70
2022-09-28T04:42:08.236Z,11.40
2022-09-28T04:43:08.224Z,11.10
2022-09-28T04:44:08.209Z,11.30
2022-09-28T04:45:08.203Z,11.30
2022-09-28T04:46:08.266Z,11.00
2022-09-28T04:47:08.500Z,11.00
2022-09-28T04:48:08.175Z,11.30
2022-09-28T04:49:08.142Z,10.20
2022-09-28T04:50:08.145Z,11.00
2022-09-28T04:51:08.121Z,10.50
2022-09-28T04:52:08.126Z,10.70
2022-09-28T04:53:08.437Z,10.80
2022-09-28T04:54:08.105Z,10.30
2022-09-28T04:55:08.076Z,9.90
2022-09-28T04:56:14.732Z,10.60
2022-09-28T04:57:08.044Z,10.10
2022-09-28T04:58:08.314Z,9.30
2022-09-28T04:59:08.024Z,10.00
2022-09-28T05:00:08.027Z,10.20
2022-09-28T05:01:08.042Z,9.30
2022-09-28T05:02:08.068Z,9.30
2022-09-28T05:03:07.989Z,10.00
2022-09-28T05:04:08.006Z,9.30
2022-09-28T05:05:07.953Z,9.50
2022-09-28T05:06:07.958Z,10.00
2022-09-28T05:07:07.934Z,9.50
2022-09-28T05:08:07.927Z,9.60
2022-09-28T05:09:07.927Z,9.60
2022-09-28T05:10:08.216Z,9.70
2022-09-28T05:11:07.886Z,9.70
2022-09-28T05:12:07.899Z,9.70
2022-09-28T05:13:07.882Z,9.80
2022-09-28T05:14:07.879Z,9.20
2022-09-28T05:15:07.881Z,9.30
2022-09-28T05:16:07.891Z,9.40
2022-09-28T05:17:07.819Z,9.70
2022-09-28T05:18:07.821Z,8.80
2022-09-28T05:19:07.798Z,9.20
2022-09-28T05:20:07.802Z,9.40
2022-09-28T05:21:07.812Z,9.60
2022-09-28T05:22:07.906Z,9.20
2022-09-28T05:23:07.749Z,9.30
2022-09-28T05:24:07.871Z,9.20
2022-09-28T05:25:07.918Z,9.40
2022-09-28T05:26:07.721Z,9.10
2022-09-28T05:27:07.699Z,9.50
2022-09-28T05:28:07.690Z,9.90
2022-09-28T05:29:07.690Z,9.80
2022-09-28T05:30:07.992Z,9.60
2022-09-28T05:31:07.659Z,9.60
2022-09-28T05:32:07.711Z,9.80
2022-09-28T05:33:07.655Z,9.70
2022-09-28T05:34:07.631Z,9.30
2022-09-28T05:35:07.622Z,10.00
2022-09-28T05:36:07.612Z,9.80
2022-09-28T05:37:07.597Z,10.10
2022-09-28T05:38:07.574Z,9.60
2022-09-28T05:39:07.574Z,9.20
2022-09-28T05:40:07.552Z,10.20
2022-09-28T05:41:07.628Z,9.90
2022-09-28T05:42:07.543Z,10.20
2022-09-28T05:43:07.542Z,9.60
2022-09-28T05:44:07.526Z,9.80
2022-09-28T05:45:07.507Z,10.20
2022-09-28T05:46:07.532Z,9.40
2022-09-28T05:47:07.723Z,10.00
2022-09-28T05:48:07.475Z,9.80
2022-09-28T05:49:07.442Z,10.50
2022-09-28T05:50:07.433Z,10.60
2022-09-28T05:51:07.423Z,9.80
2022-09-28T05:52:07.414Z,9.90
2022-09-28T05:53:07.427Z,10.30
2022-09-28T05:54:17.558Z,9.90
2022-09-28T05:55:07.373Z,10.80
2022-09-28T05:56:07.378Z,10.10
2022-09-28T05:57:07.387Z,10.50
2022-09-28T05:58:07.344Z,10.10
2022-09-28T05:59:07.325Z,10.00
2022-09-28T06:00:07.335Z,9.90
2022-09-28T06:01:07.401Z,9.60
2022-09-28T06:02:07.331Z,10.00
2022-09-28T06:03:09.259Z,9.70
2022-09-28T06:04:07.291Z,9.90
2022-09-28T06:05:07.278Z,10.10
2022-09-28T06:06:07.247Z,9.90
2022-09-28T06:07:07.439Z,10.40
2022-09-28T06:08:07.240Z,10.20
2022-09-28T06:09:07.234Z,10.40
2022-09-28T06:10:07.230Z,10.20
2022-09-28T06:11:07.201Z,10.30
2022-09-28T06:12:07.199Z,9.70
2022-09-28T06:13:07.194Z,10.80
2022-09-28T06:14:07.158Z,10.30
2022-09-28T06:15:07.139Z,10.00
2022-09-28T06:16:07.331Z,10.60
2022-09-28T06:17:07.161Z,10.50
2022-09-28T06:18:07.130Z,10.40
2022-09-28T06:19:07.098Z,10.50
2022-09-28T06:20:07.112Z,10.90
2022-09-28T06:21:07.101Z,10.60
2022-09-28T06:22:07.110Z,10.30
2022-09-28T06:23:07.103Z,10.10
2022-09-28T06:24:07.063Z,10.60
2022-09-28T06:25:07.031Z,10.70
2022-09-28T06:26:07.040Z,10.30
2022-09-28T06:27:07.018Z,10.60
2022-09-28T06:28:06.999Z,10.60
2022-09-28T06:29:06.982Z,10.70
2022-09-28T06:30:06.994Z,10.60
2022-09-28T06:31:07.024Z,10.80
2022-09-28T06:32:06.971Z,11.10
2022-09-28T06:33:06.955Z,11.60
2022-09-28T06:34:06.945Z,10.60
2022-09-28T06:35:06.925Z,11.00
2022-09-28T06:36:06.902Z,11.10
2022-09-28T06:37:06.890Z,10.60
2022-09-28T06:38:06.906Z,10.70
2022-09-28T06:39:06.884Z,11.30
2022-09-28T06:40:06.873Z,11.30
2022-09-28T06:41:07.061Z,11.00
2022-09-28T06:42:06.833Z,10.90
2022-09-28T06:43:06.863Z,11.30
2022-09-28T06:44:06.827Z,11.20
2022-09-28T06:45:06.807Z,10.80
2022-09-28T06:46:06.880Z,11.00
2022-09-28T06:47:06.805Z,10.60
2022-09-28T06:48:06.779Z,11.40
2022-09-28T06:49:06.778Z,11.80
2022-09-28T06:50:06.752Z,11.20
2022-09-28T06:51:06.725Z,11.40
2022-09-28T06:52:06.735Z,11.90
2022-09-28T06:53:06.754Z,11.70
2022-09-28T06:54:06.891Z,11.80
2022-09-28T06:55:06.700Z,11.60
2022-09-28T06:56:06.688Z,11.80
2022-09-28T06:57:06.670Z,11.20
2022-09-28T06:58:06.664Z,12.20
2022-09-28T06:59:06.660Z,11.60
2022-09-28T07:00:06.627Z,11.50
2022-09-28T07:02:17.645Z,12.10
2022-09-28T07:03:17.606Z,11.80
2022-09-28T07:04:17.651Z,11.90
2022-09-28T07:05:17.578Z,12.10
2022-09-28T07:06:17.578Z,12.00
2022-09-28T07:07:17.565Z,12.30
2022-09-28T07:08:17.526Z,12.50
2022-09-28T07:09:31.727Z,11.90
2022-09-28T07:10:18.535Z,12.60
2022-09-28T07:11:17.497Z,12.20
2022-09-28T07:12:17.497Z,12.30
2022-09-28T07:13:45.151Z,12.80
2022-09-28T07:14:29.845Z,12.60
2022-09-28T07:15:18.469Z,12.70
2022-09-28T07:16:19.640Z,13.00
2022-09-28T07:17:17.503Z,12.30
2022-09-28T07:18:17.457Z,12.80
2022-09-28T07:19:17.406Z,13.20
2022-09-28T07:20:19.428Z,13.20
2022-09-28T07:21:27.464Z,12.90
2022-09-28T07:22:20.309Z,14.00
2022-09-28T07:23:19.675Z,12.80
2022-09-28T07:24:17.773Z,13.40
2022-09-28T07:25:17.354Z,13.40
2022-09-28T07:26:20.470Z,13.70
2022-09-28T07:27:18.322Z,13.10
2022-09-28T07:28:17.337Z,13.50
2022-09-28T07:29:17.302Z,13.50
2022-09-28T07:30:17.282Z,13.80
2022-09-28T07:31:17.318Z,13.10
2022-09-28T07:32:17.323Z,12.60
2022-09-28T07:33:17.259Z,14.10
2022-09-28T07:34:17.434Z,13.80
2022-09-28T07:35:17.234Z,13.30
2022-09-28T07:36:17.200Z,12.80
2022-09-28T07:37:17.190Z,13.20
2022-09-28T07:38:17.189Z,14.00
2022-09-28T07:39:17.184Z,13.50
2022-09-28T07:40:17.394Z,13.40
2022-09-28T07:41:17.164Z,12.90
2022-09-28T07:42:17.154Z,13.30
2022-09-28T07:43:17.129Z,12.80
2022-09-28T07:44:17.198Z,13.40
2022-09-28T07:45:17.394Z,13.10
2022-09-28T07:46:17.142Z,13.30
2022-09-28T07:47:17.109Z,12.90
2022-09-28T07:48:17.082Z,13.10
2022-09-28T07:49:17.131Z,12.20
2022-09-28T07:50:17.061Z,12.40
2022-09-28T07:51:17.054Z,12.60
2022-09-28T07:52:17.047Z,13.10
2022-09-28T07:53:17.003Z,13.00
2022-09-28T07:54:17.008Z,12.70
2022-09-28T07:55:16.983Z,13.10
2022-09-28T07:56:16.974Z,13.00
2022-09-28T07:57:16.997Z,13.20
2022-09-28T07:58:16.977Z,13.10
2022-09-28T07:59:17.000Z,13.10
2022-09-28T08:00:16.944Z,13.20
2022-09-28T08:01:17.001Z,12.80
2022-09-28T08:02:16.981Z,14.00
2022-09-28T08:03:17.025Z,14.30
2022-09-28T08:04:16.875Z,14.20
2022-09-28T08:05:16.876Z,14.00
2022-09-28T08:06:16.854Z,13.80
2022-09-28T08:07:20.422Z,13.70
2022-09-28T08:08:17.846Z,13.60
2022-09-28T08:09:16.827Z,13.90
2022-09-28T08:10:16.807Z,14.30
2022-09-28T08:11:16.797Z,15.00
2022-09-28T08:12:16.797Z,13.90
2022-09-28T08:13:16.799Z,14.10
2022-09-28T08:14:16.868Z,14.80
2022-09-28T08:15:16.747Z,14.40
2022-09-28T08:16:16.878Z,14.60
2022-09-28T08:17:16.730Z,14.90
2022-09-28T08:18:16.743Z,15.40
2022-09-28T08:19:16.936Z,14.20
2022-09-28T08:20:16.699Z,14.90
2022-09-28T08:21:16.695Z,13.80
2022-09-28T08:22:16.670Z,14.00
2022-09-28T08:23:16.660Z,14.80
2022-09-28T08:24:16.663Z,14.30
2022-09-28T08:25:16.630Z,14.10
2022-09-28T08:26:16.634Z,14.30
2022-09-28T08:27:16.664Z,13.60
2022-09-28T08:28:16.592Z,14.00
2022-09-28T08:29:16.595Z,13.70
2022-09-28T08:30:16.585Z,14.00
2022-09-28T08:31:16.592Z,13.90
2022-09-28T08:32:16.592Z,13.60
2022-09-28T08:33:16.565Z,13.80
2022-09-28T08:34:16.532Z,13.70
2022-09-28T08:35:16.521Z,13.90
2022-09-28T08:36:16.502Z,13.40
2022-09-28T08:37:16.492Z,12.50
2022-09-28T08:38:16.503Z,12.60
2022-09-28T08:39:16.473Z,12.90
2022-09-28T08:40:16.537Z,13.50
2022-09-28T08:41:16.457Z,13.40
2022-09-28T08:42:16.434Z,12.60
2022-09-28T08:43:16.437Z,12.50
2022-09-28T08:44:16.602Z,12.60
2022-09-28T08:45:16.415Z,13.00
2022-09-28T08:46:16.470Z,13.00
2022-09-28T08:47:16.388Z,12.50
2022-09-28T08:48:16.684Z,13.20
2022-09-28T08:49:31.851Z,12.80
2022-09-28T08:50:17.360Z,12.80
2022-09-28T08:51:16.347Z,13.10
2022-09-28T08:52:16.329Z,13.30
2022-09-28T08:53:16.319Z,12.70
2022-09-28T08:54:16.427Z,13.10
2022-09-28T08:55:16.303Z,13.70
2022-09-28T08:56:16.267Z,13.40
2022-09-28T08:57:16.290Z,13.30
2022-09-28T08:58:16.268Z,13.50
2022-09-28T08:59:16.251Z,13.50
2022-09-28T09:00:16.259Z,12.60
2022-09-28T09:01:16.299Z,14.10
2022-09-28T09:02:16.235Z,13.70
2022-09-28T09:03:16.210Z,14.20
2022-09-28T09:04:16.223Z,13.60
2022-09-28T09:05:16.169Z,13.50
2022-09-28T09:06:18.423Z,13.50
2022-09-28T09:07:16.152Z,13.70
2022-09-28T09:08:16.149Z,14.30
2022-09-28T09:09:16.133Z,13.50
2022-09-28T09:10:16.114Z,14.20
2022-09-28T09:11:16.111Z,14.20
2022-09-28T09:12:16.312Z,13.80
2022-09-28T09:13:16.069Z,13.20
2022-09-28T09:14:16.118Z,13.90
2022-09-28T09:15:16.042Z,13.20
2022-09-28T09:16:16.078Z,12.80
2022-09-28T09:17:16.057Z,12.80
2022-09-28T09:18:19.272Z,12.70
2022-09-28T09:19:16.011Z,12.60
2022-09-28T09:20:15.981Z,13.00
2022-09-28T09:21:15.987Z,13.00
2022-09-28T09:22:15.975Z,13.20
2022-09-28T09:23:15.970Z,13.10
2022-09-28T09:24:15.965Z,12.70
2022-09-28T09:25:15.921Z,12.90
2022-09-28T09:26:19.846Z,12.80
2022-09-28T09:27:16.925Z,12.40
2022-09-28T09:28:15.896Z,13.20
2022-09-28T09:29:15.893Z,12.90
2022-09-28T09:30:19.077Z,13.00
2022-09-28T09:31:19.569Z,13.00
2022-09-28T09:32:16.844Z,13.50
2022-09-28T09:33:16.056Z,13.00
2022-09-28T09:34:16.123Z,12.80
2022-09-28T09:35:15.820Z,12.60
2022-09-28T09:36:15.814Z,12.60
2022-09-28T09:37:15.792Z,12.10
2022-09-28T09:38:15.784Z,12.70
2022-09-28T09:39:15.774Z,12.50
2022-09-28T09:40:15.988Z,12.40
2022-09-28T09:41:15.750Z,13.10
2022-09-28T09:42:15.744Z,12.80
2022-09-28T09:43:16.028Z,12.40
2022-09-28T09:44:15.804Z,12.50
2022-09-28T09:45:16.014Z,12.40
2022-09-28T09:46:15.764Z,11.40
2022-09-28T09:47:15.667Z,11.60
2022-09-28T09:48:15.658Z,11.80
2022-09-28T09:49:15.648Z,11.70
2022-09-28T09:50:15.671Z,11.30
2022-09-28T09:51:15.662Z,11.60
2022-09-28T09:52:15.631Z,11.50
2022-09-28T09:53:15.598Z,11.60
2022-09-28T09:54:15.634Z,12.00
2022-09-28T09:55:15.582Z,11.40
2022-09-28T09:56:15.809Z,10.60
2022-09-28T09:57:15.562Z,10.80
2022-09-28T09:58:15.555Z,10.20
2022-09-28T09:59:15.601Z,10.90
2022-09-28T10:00:15.709Z,10.80
2022-09-28T10:01:15.579Z,10.40
2022-09-28T10:03:26.491Z,9.60
2022-09-28T10:04:26.485Z,9.60
2022-09-28T10:05:26.472Z,10.30
2022-09-28T10:06:26.466Z,10.60
2022-09-28T10:07:26.787Z,10.20
2022-09-28T10:08:33.436Z,10.20
2022-09-28T10:09:26.423Z,10.30
2022-09-28T10:10:26.448Z,9.50
2022-09-28T10:11:26.390Z,10.20
2022-09-28T10:12:26.382Z,9.50
2022-09-28T10:13:26.682Z,9.80
2022-09-28T10:14:26.364Z,9.30
2022-09-28T10:15:26.340Z,9.70
2022-09-28T10:16:26.397Z,8.90
2022-09-28T10:17:26.535Z,10.70
2022-09-28T10:18:26.301Z,9.60
2022-09-28T10:19:26.305Z,9.80
2022-09-28T10:20:26.294Z,8.90
2022-09-28T10:21:26.272Z,9.70
2022-09-28T10:22:26.276Z,8.90
2022-09-28T10:23:28.147Z,9.20
2022-09-28T10:24:26.232Z,9.60
2022-09-28T10:25:26.235Z,9.60
2022-09-28T10:26:26.230Z,8.90
2022-09-28T10:27:26.243Z,9.80
2022-09-28T10:28:26.183Z,9.00
2022-09-28T10:29:26.214Z,8.60
2022-09-28T10:30:26.164Z,9.10
2022-09-28T10:31:26.168Z,8.80
2022-09-28T10:32:26.168Z,8.90
2022-09-28T10:33:26.147Z,8.60
2022-09-28T10:34:26.122Z,8.40
2022-09-28T10:35:26.439Z,8.40
2022-09-28T10:36:26.098Z,7.20
2022-09-28T10:37:26.102Z,7.00
2022-09-28T10:38:26.099Z,7.00
2022-09-28T10:39:26.076Z,7.40
2022-09-28T10:40:26.103Z,6.60
2022-09-28T10:41:26.346Z,6.10
2022-09-28T10:42:26.041Z,5.80
2022-09-28T10:43:26.010Z,5.60
2022-09-28T10:44:26.004Z,6.10
2022-09-28T10:45:26.023Z,6.00
2022-09-28T10:46:26.250Z,5.80
2022-09-28T10:47:25.957Z,5.60
2022-09-28T10:48:25.960Z,5.80
2022-09-28T10:49:25.948Z,5.50
2022-09-28T10:50:25.950Z,5.10
2022-09-28T10:51:25.943Z,4.60
2022-09-28T10:52:25.930Z,4.60
2022-09-28T10:53:25.902Z,5.10
2022-09-28T10:54:25.901Z,5.60
2022-09-28T10:55:25.880Z,5.40
2022-09-28T10:56:25.884Z,4.60
2022-09-28T10:57:26.143Z,5.10
2022-09-28T10:58:25.842Z,5.10
2022-09-28T10:59:26.008Z,5.00
2022-09-28T11:00:25.834Z,4.80
2022-09-28T11:01:25.907Z,4.80
2022-09-28T11:02:25.874Z,5.30
2022-09-28T11:03:25.855Z,4.90
2022-09-28T11:04:25.800Z,5.60
2022-09-28T11:05:25.776Z,5.40
2022-09-28T11:06:25.766Z,5.00
2022-09-28T11:07:25.743Z,5.80
2022-09-28T11:08:25.731Z,5.30
2022-09-28T11:09:29.745Z,5.00
2022-09-28T11:10:26.747Z,5.30
2022-09-28T11:11:25.696Z,5.60
2022-09-28T11:12:25.684Z,5.20
2022-09-28T11:13:25.673Z,5.60
2022-09-28T11:14:25.654Z,6.30
2022-09-28T11:15:25.859Z,6.10
2022-09-28T11:16:25.733Z,6.90
2022-09-28T11:17:25.639Z,7.50
2022-09-28T11:18:25.630Z,7.80
2022-09-28T11:19:25.618Z,8.00
2022-09-28T11:20:28.246Z,6.90
2022-09-28T11:21:25.584Z,6.50
2022-09-28T11:22:25.566Z,6.80
2022-09-28T11:23:25.570Z,6.30
2022-09-28T11:24:25.948Z,6.50
2022-09-28T11:25:25.543Z,6.50
2022-09-28T11:26:25.831Z,6.80
2022-09-28T11:27:25.527Z,6.80
2022-09-28T11:28:25.498Z,6.80
2022-09-28T11:29:25.508Z,6.50
2022-09-28T11:30:25.519Z,6.50
2022-09-28T11:31:25.458Z,6.30
2022-09-28T11:32:25.462Z,6.50
2022-09-28T11:33:25.452Z,6.20
2022-09-28T11:34:36.467Z,6.00
2022-09-28T11:35:26.443Z,6.30
2022-09-28T11:36:25.438Z,6.10
2022-09-28T11:37:25.390Z,6.10
2022-09-28T11:38:25.394Z,6.00
2022-09-28T11:39:25.361Z,6.30
2022-09-28T11:40:25.425Z,5.50
2022-09-28T11:41:25.354Z,5.50
2022-09-28T11:42:25.331Z,5.40
2022-09-28T11:43:25.312Z,5.30
2022-09-28T11:44:29.322Z,5.30
2022-09-28T11:45:26.516Z,5.30
2022-09-28T11:46:25.336Z,5.30
2022-09-28T11:47:25.288Z,5.00
2022-09-28T11:49:49.927Z,4.80
2022-09-28T11:50:36.253Z,4.90
2022-09-28T11:51:36.235Z,5.40
2022-09-28T11:52:36.212Z,5.10
2022-09-28T11:53:36.221Z,4.60
2022-09-28T11:54:36.192Z,5.00
2022-09-28T11:55:36.406Z,4.80
2022-09-28T11:56:36.169Z,5.00
2022-09-28T11:57:36.165Z,5.00
2022-09-28T11:58:36.164Z,4.70
2022-09-28T11:59:36.425Z,4.60
2022-09-28T12:00:36.128Z,4.90
2022-09-28T12:01:36.130Z,4.70
2022-09-28T12:02:36.186Z,4.50
2022-09-28T12:03:36.185Z,4.10
2022-09-28T12:04:36.066Z,4.10
2022-09-28T12:05:36.289Z,4.40
2022-09-28T12:06:36.063Z,4.00
2022-09-28T12:07:36.050Z,4.30
2022-09-28T12:08:36.041Z,3.90
2022-09-28T12:09:36.018Z,3.80
2022-09-28T12:10:35.997Z,4.10
2022-09-28T12:11:36.222Z,3.90
2022-09-28T12:12:35.992Z,3.90
2022-09-28T12:13:35.982Z,3.80
2022-09-28T12:14:35.964Z,3.80
2022-09-28T12:15:59.284Z,3.70
2022-09-28T12:17:04.377Z,3.60
2022-09-28T12:17:36.988Z,3.30
2022-09-28T12:18:35.909Z,3.30
2022-09-28T12:19:35.914Z,3.50
2022-09-28T12:20:35.902Z,3.60
2022-09-28T12:21:35.891Z,3.30
2022-09-28T12:22:36.179Z,3.50
2022-09-28T12:23:35.879Z,3.60
2022-09-28T12:24:35.845Z,3.50
2022-09-28T12:25:35.845Z,3.60
2022-09-28T12:26:37.886Z,3.30
2022-09-28T12:27:36.055Z,3.50
2022-09-28T12:28:35.783Z,3.30
2022-09-28T12:29:35.794Z,3.70
2022-09-28T12:30:35.805Z,3.90
2022-09-28T12:31:35.755Z,4.00
2022-09-28T12:32:35.763Z,4.10
2022-09-28T12:33:36.055Z,4.10
2022-09-28T12:34:35.713Z,4.00
2022-09-28T12:35:35.719Z,4.00
2022-09-28T12:36:35.707Z,4.20
2022-09-28T12:37:35.685Z,4.30
2022-09-28T12:38:35.997Z,4.20
2022-09-28T12:39:56.629Z,4.00
2022-09-28T12:40:36.720Z,4.10
2022-09-28T12:41:35.637Z,4.30
2022-09-28T12:42:35.626Z,4.40
2022-09-28T12:43:35.631Z,4.30
2022-09-28T12:44:35.798Z,3.90
2022-09-28T12:45:47.880Z,4.30
2022-09-28T12:46:36.608Z,4.10
2022-09-28T12:47:35.591Z,4.20
2022-09-28T12:48:35.561Z,3.90
2022-09-28T12:50:39.903Z,4.00
2022-09-28T12:51:36.521Z,4.20
2022-09-28T12:52:35.557Z,4.30
2022-09-28T12:53:35.572Z,4.30
2022-09-28T12:54:35.488Z,4.80
2022-09-28T12:55:35.492Z,4.10
2022-09-28T12:56:35.482Z,4.10
2022-09-28T12:57:35.523Z,4.10
2022-09-28T12:58:35.464Z,4.20
2022-09-28T12:59:35.447Z,3.90
2022-09-28T13:00:35.419Z,3.90
2022-09-28T13:01:35.479Z,4.10
2022-09-28T13:02:35.503Z,4.00
2022-09-28T13:03:35.408Z,3.80
2022-09-28T13:04:35.386Z,3.90
2022-09-28T13:05:35.375Z,4.00
2022-09-28T13:06:35.373Z,4.20
2022-09-28T13:07:35.343Z,4.10
2022-09-28T13:08:35.324Z,4.00
2022-09-28T13:09:35.322Z,4.30
2022-09-28T13:10:35.327Z,4.30
2022-09-28T13:11:35.321Z,4.00
2022-09-28T13:12:35.313Z,3.70
2022-09-28T13:13:35.274Z,4.10
2022-09-28T13:14:35.269Z,4.10